Time;durP1;ratioP1;P1;durP2;ratioP2;P2;SDS_P1;SDS_P2;PMS_P1;PMS_P2;Temp;Humidity;BMP_temperature;BMP_pressure;BME280_temperature;BME280_humidity;BME280_pressure;Samples;Min_cycle;Max_cycle;Signal;HPM_P1;HPM_P2
2022/10/10 00:00:23;;;;;;;9.05;5.10;;;12.00;99.90;;;;;;4990605;28;20057;-63
2022/10/10 00:02:49;;;;;;;8.02;4.70;;;12.10;99.90;;;;;;4959224;28;20042;-62
2022/10/10 00:05:14;;;;;;;10.98;5.07;;;12.10;99.90;;;;;;4985219;28;20044;-62
2022/10/10 00:07:40;;;;;;;7.78;4.03;;;12.00;99.90;;;;;;4990455;28;20484;-63
2022/10/10 00:10:06;;;;;;;10.23;5.82;;;11.90;99.90;;;;;;4991597;28;20042;-62
2022/10/10 00:12:32;;;;;;;9.55;5.50;;;11.90;99.90;;;;;;4989260;28;20084;-62
2022/10/10 00:14:57;;;;;;;7.45;5.63;;;12.00;99.90;;;;;;4990241;28;20364;-62
2022/10/10 00:17:23;;;;;;;10.32;5.40;;;12.30;99.90;;;;;;4955961;28;20046;-62
2022/10/10 00:19:49;;;;;;;10.98;4.93;;;11.90;99.90;;;;;;4955175;28;20500;-62
2022/10/10 00:22:15;;;;;;;11.50;5.80;;;11.80;99.90;;;;;;4967382;28;20035;-62
2022/10/10 00:24:40;;;;;;;9.68;4.68;;;11.70;99.90;;;;;;4981390;28;20042;-62
2022/10/10 00:27:06;;;;;;;9.75;5.05;;;12.10;99.90;;;;;;4986956;28;20672;-62
2022/10/10 00:29:32;;;;;;;9.77;6.13;;;11.70;99.90;;;;;;4990725;28;20133;-62
2022/10/10 00:31:57;;;;;;;6.45;4.68;;;11.70;99.90;;;;;;4989818;28;20038;-62
2022/10/10 00:34:23;;;;;;;10.18;5.30;;;11.80;99.90;;;;;;4991202;28;20035;-62
2022/10/10 00:36:48;;;;;;;6.22;4.40;;;11.70;99.90;;;;;;4985263;28;20410;-62
2022/10/10 00:39:14;;;;;;;6.05;3.83;;;12.10;99.90;;;;;;4990589;28;20066;-62
2022/10/10 00:41:39;;;;;;;7.40;4.95;;;11.70;99.90;;;;;;4990852;28;20042;-62
2022/10/10 00:44:09;;;;;;;8.88;5.20;;;11.50;99.90;;;;;;4990500;28;20065;-63
2022/10/10 00:46:34;;;;;;;18.05;5.63;;;11.60;99.90;;;;;;4966674;28;20104;-62
2022/10/10 00:49:02;;;;;;;8.07;5.32;;;11.40;99.90;;;;;;4971566;28;20042;-62
2022/10/10 00:51:28;;;;;;;7.13;4.68;;;11.50;99.90;;;;;;4958303;28;20074;-62
2022/10/10 00:54:07;;;;;;;12.88;5.20;;;11.50;99.90;;;;;;4969353;28;20100;-62
2022/10/10 00:56:40;;;;;;;10.85;5.65;;;11.50;99.90;;;;;;4983926;28;20046;-62
2022/10/10 00:59:09;;;;;;;9.57;4.38;;;11.40;99.90;;;;;;4989915;28;20030;-62
2022/10/10 01:01:36;;;;;;;9.05;5.40;;;11.40;99.90;;;;;;4981661;28;20045;-62
2022/10/10 01:04:02;;;;;;;8.68;5.25;;;11.50;99.90;;;;;;4965732;28;20035;-62
2022/10/10 01:06:28;;;;;;;7.30;5.53;;;11.50;99.90;;;;;;4958148;28;20499;-62
2022/10/10 01:08:55;;;;;;;9.85;5.57;;;11.40;99.90;;;;;;4989711;28;20082;-62
2022/10/10 01:11:27;;;;;;;10.82;5.90;;;11.50;99.90;;;;;;4973893;28;20042;-62
2022/10/10 01:14:35;;;;;;;12.38;6.32;;;11.40;99.90;;;;;;4960255;28;20538;-62
2022/10/10 01:17:15;;;;;;;8.45;5.88;;;11.30;99.90;;;;;;4990085;28;20716;-62
2022/10/10 01:20:00;;;;;;;11.27;6.10;;;11.40;99.90;;;;;;4990073;28;20065;-62
2022/10/10 01:22:26;;;;;;;9.57;5.60;;;11.40;99.90;;;;;;4990268;28;20109;-62
2022/10/10 01:24:58;;;;;;;12.82;6.05;;;11.20;99.90;;;;;;4990685;28;20185;-62
2022/10/10 01:27:33;;;;;;;9.27;5.78;;;11.40;99.90;;;;;;4990326;28;20049;-63
2022/10/10 01:30:19;;;;;;;7.65;5.10;;;11.30;99.90;;;;;;4990891;28;20042;-62
2022/10/10 01:32:59;;;;;;;8.65;5.88;;;11.30;99.90;;;;;;4988535;28;20077;-62
2022/10/10 01:35:46;;;;;;;9.38;4.72;;;11.20;99.90;;;;;;4985063;28;20039;-62
2022/10/10 01:38:35;;;;;;;9.43;5.88;;;11.30;99.90;;;;;;4986493;28;20042;-62
2022/10/10 01:41:13;;;;;;;9.93;5.38;;;11.30;99.90;;;;;;4968928;28;20137;-62
2022/10/10 01:43:39;;;;;;;12.27;5.25;;;11.20;99.90;;;;;;4992580;28;20125;-62
2022/10/10 01:46:17;;;;;;;11.07;5.65;;;11.20;99.90;;;;;;4994189;28;20149;-62
2022/10/10 01:48:46;;;;;;;8.57;6.35;;;11.40;99.90;;;;;;4991595;28;20086;-62
2022/10/10 01:51:21;;;;;;;7.30;5.35;;;11.40;99.90;;;;;;4992591;28;20046;-62
2022/10/10 01:54:02;;;;;;;10.03;6.07;;;11.30;99.90;;;;;;4975627;28;20054;-62
2022/10/10 01:57:03;;;;;;;11.70;6.13;;;11.30;99.90;;;;;;4989280;28;20329;-62
2022/10/10 01:59:52;;;;;;;13.07;5.63;;;11.40;99.90;;;;;;4975184;28;20493;-62
2022/10/10 02:02:35;;;;;;;14.10;6.15;;;11.20;99.90;;;;;;4991465;28;20416;-62
2022/10/10 02:05:27;;;;;;;9.35;5.55;;;11.40;99.90;;;;;;4976848;28;20049;-63
2022/10/10 02:08:12;;;;;;;8.90;5.55;;;11.30;99.90;;;;;;4975072;28;20088;-63
2022/10/10 02:10:47;;;;;;;11.77;5.30;;;11.50;99.90;;;;;;4993522;28;20046;-62
2022/10/10 02:13:15;;;;;;;11.15;5.50;;;11.60;99.90;;;;;;4992856;28;20046;-62
2022/10/10 02:15:46;;;;;;;8.80;5.57;;;11.50;99.90;;;;;;4974535;28;20093;-62
2022/10/10 02:18:15;;;;;;;7.43;5.32;;;11.40;99.90;;;;;;4988799;28;20085;-62
2022/10/10 02:20:41;;;;;;;8.43;6.00;;;11.50;99.90;;;;;;4992029;28;20529;-62
2022/10/10 02:23:10;;;;;;;8.63;5.60;;;11.40;99.90;;;;;;4988183;28;20050;-62
2022/10/10 02:25:39;;;;;;;10.93;5.50;;;11.50;99.90;;;;;;4992445;28;20108;-62
2022/10/10 02:28:08;;;;;;;11.38;5.68;;;11.40;99.90;;;;;;4974530;28;20046;-62
2022/10/10 02:30:37;;;;;;;8.98;6.10;;;11.40;99.90;;;;;;4991902;28;20045;-62
2022/10/10 02:33:05;;;;;;;11.32;6.00;;;11.60;99.90;;;;;;4993247;28;20053;-62
2022/10/10 02:35:36;;;;;;;7.93;5.85;;;11.40;99.90;;;;;;4991974;28;20047;-62
2022/10/10 02:38:05;;;;;;;15.05;6.45;;;11.40;99.90;;;;;;4970093;28;20057;-62
2022/10/10 02:40:33;;;;;;;10.38;5.60;;;11.60;99.90;;;;;;4971175;28;20034;-63
2022/10/10 02:43:01;;;;;;;9.88;6.10;;;11.40;99.90;;;;;;4992248;28;20391;-62
2022/10/10 02:45:29;;;;;;;12.75;6.25;;;11.40;99.90;;;;;;4984469;28;20046;-62
2022/10/10 02:47:55;;;;;;;8.68;5.93;;;11.40;99.90;;;;;;4978786;28;20118;-62
2022/10/10 02:50:21;;;;;;;10.63;6.03;;;11.30;99.90;;;;;;4959612;28;20046;-62
2022/10/10 02:52:47;;;;;;;11.38;6.15;;;11.60;99.90;;;;;;4981472;28;20058;-62
2022/10/10 02:55:13;;;;;;;7.72;5.60;;;11.40;99.90;;;;;;4969533;28;20054;-63
2022/10/10 02:57:38;;;;;;;8.32;6.32;;;11.40;99.90;;;;;;4986914;28;20054;-62
2022/10/10 03:00:05;;;;;;;8.88;6.47;;;11.40;99.90;;;;;;4975292;28;20052;-62
2022/10/10 03:02:31;;;;;;;8.43;6.32;;;11.50;99.90;;;;;;4983853;28;20034;-62
2022/10/10 03:04:57;;;;;;;12.45;6.18;;;11.90;99.90;;;;;;4974929;28;20073;-62
2022/10/10 03:07:24;;;;;;;9.80;5.85;;;11.30;99.90;;;;;;4989910;28;20038;-62
2022/10/10 03:09:50;;;;;;;11.82;6.63;;;11.50;99.90;;;;;;4992780;28;20062;-62
2022/10/10 03:12:15;;;;;;;9.23;5.97;;;12.10;99.90;;;;;;4991243;28;20034;-62
2022/10/10 03:14:41;;;;;;;10.27;6.13;;;11.30;99.90;;;;;;4973948;28;20042;-62
2022/10/10 03:17:06;;;;;;;9.20;6.07;;;11.20;99.90;;;;;;4989771;28;20049;-62
2022/10/10 03:19:32;;;;;;;15.05;6.18;;;11.30;99.90;;;;;;4969436;28;20496;-62
2022/10/10 03:21:58;;;;;;;14.10;5.68;;;11.10;99.90;;;;;;4963937;28;20151;-62
2022/10/10 03:24:23;;;;;;;7.97;6.07;;;11.00;99.90;;;;;;4991321;28;20034;-62
2022/10/10 03:26:49;;;;;;;7.70;6.28;;;11.00;99.90;;;;;;4991727;28;20040;-62
2022/10/10 03:29:14;;;;;;;10.15;5.93;;;11.20;99.90;;;;;;4991948;28;20054;-62
2022/10/10 03:31:40;;;;;;;9.20;6.45;;;11.20;99.90;;;;;;4958659;28;20049;-62
2022/10/10 03:34:06;;;;;;;9.55;5.50;;;11.20;99.90;;;;;;4972754;28;20047;-62
2022/10/10 03:36:31;;;;;;;8.20;5.60;;;11.00;99.90;;;;;;4985511;28;20038;-62
2022/10/10 03:38:57;;;;;;;10.20;5.90;;;10.90;99.90;;;;;;4957948;28;20066;-62
2022/10/10 03:41:22;;;;;;;8.32;5.43;;;11.20;99.90;;;;;;4980587;28;20027;-62
2022/10/10 03:43:48;;;;;;;8.45;5.28;;;11.30;99.90;;;;;;4989391;28;20050;-62
2022/10/10 03:46:14;;;;;;;9.18;6.20;;;11.30;99.90;;;;;;4957395;28;20182;-62
2022/10/10 03:48:39;;;;;;;10.88;6.80;;;11.50;99.90;;;;;;4979923;28;20492;-62
2022/10/10 03:51:05;;;;;;;10.63;6.20;;;11.30;99.90;;;;;;4973580;28;20045;-62
2022/10/10 03:53:31;;;;;;;10.73;6.00;;;11.50;99.90;;;;;;4989499;28;20054;-62
2022/10/10 03:55:56;;;;;;;8.13;5.35;;;11.30;99.90;;;;;;4990081;28;20100;-62
2022/10/10 03:58:22;;;;;;;9.40;5.55;;;11.10;99.90;;;;;;4990924;28;20073;-62
2022/10/10 04:00:59;;;;;;;8.70;6.03;;;11.50;99.90;;;;;;4985834;28;20035;-62
2022/10/10 04:03:25;;;;;;;10.10;5.03;;;11.10;99.90;;;;;;4982984;28;20039;-62
2022/10/10 04:05:52;;;;;;;7.47;5.45;;;11.20;99.90;;;;;;4973595;28;20046;-62
2022/10/10 04:08:18;;;;;;;9.18;5.35;;;11.20;99.90;;;;;;4990537;28;20049;-62
2022/10/10 04:10:47;;;;;;;8.98;6.10;;;11.20;99.90;;;;;;4973145;28;20042;-62
2022/10/10 04:13:13;;;;;;;9.77;5.57;;;11.40;99.90;;;;;;4989007;28;20114;-62
2022/10/10 04:15:38;;;;;;;8.80;5.80;;;11.30;99.90;;;;;;4974806;28;20050;-62
2022/10/10 04:18:04;;;;;;;11.13;5.57;;;11.40;99.90;;;;;;4983960;28;20049;-62
2022/10/10 04:20:30;;;;;;;7.50;5.18;;;11.10;99.90;;;;;;4960494;28;20507;-62
2022/10/10 04:22:56;;;;;;;8.35;6.45;;;11.50;99.90;;;;;;4975954;28;20644;-62
2022/10/10 04:25:21;;;;;;;9.75;5.97;;;11.20;99.90;;;;;;4991412;28;20031;-62
2022/10/10 04:27:47;;;;;;;12.40;7.07;;;11.30;99.90;;;;;;4991192;28;20042;-62
2022/10/10 04:30:13;;;;;;;11.57;6.18;;;11.30;99.90;;;;;;4974579;28;20484;-62
2022/10/10 04:32:38;;;;;;;10.77;6.32;;;11.70;99.90;;;;;;4943541;28;20415;-62
2022/10/10 04:35:04;;;;;;;10.35;6.28;;;11.70;99.90;;;;;;4985114;28;20046;-62
2022/10/10 04:37:30;;;;;;;10.60;6.35;;;11.80;99.90;;;;;;4970617;28;20057;-62
2022/10/10 04:39:55;;;;;;;11.60;6.78;;;11.40;99.90;;;;;;4989676;28;20030;-62
2022/10/10 04:42:21;;;;;;;11.30;6.93;;;11.40;99.90;;;;;;4988297;28;20053;-62
2022/10/10 04:44:47;;;;;;;13.20;6.10;;;11.40;99.90;;;;;;4989867;28;20038;-62
2022/10/10 04:47:13;;;;;;;9.02;6.20;;;11.30;99.90;;;;;;4972754;28;20058;-63
2022/10/10 04:49:40;;;;;;;7.95;5.53;;;11.70;99.90;;;;;;4991125;28;20106;-62
2022/10/10 04:52:07;;;;;;;14.15;6.70;;;11.70;99.90;;;;;;4964257;28;20049;-62
2022/10/10 04:54:33;;;;;;;11.25;6.15;;;11.70;99.90;;;;;;4981971;28;20110;-62
2022/10/10 04:56:59;;;;;;;10.82;6.50;;;11.60;99.90;;;;;;4981281;28;20497;-62
2022/10/10 04:59:24;;;;;;;7.38;5.50;;;11.20;99.90;;;;;;4962430;28;20049;-62
2022/10/10 05:01:50;;;;;;;11.73;6.30;;;11.30;99.90;;;;;;4980591;28;20092;-62
2022/10/10 05:04:15;;;;;;;7.82;5.45;;;11.20;99.90;;;;;;4965019;28;20039;-62
2022/10/10 05:06:41;;;;;;;10.88;5.93;;;11.10;99.90;;;;;;4968529;28;20105;-62
2022/10/10 05:09:07;;;;;;;12.10;7.25;;;11.20;99.90;;;;;;4968873;28;20412;-62
2022/10/10 05:11:33;;;;;;;9.52;6.03;;;11.20;99.90;;;;;;4951619;28;20099;-62
2022/10/10 05:13:58;;;;;;;9.60;5.65;;;11.30;99.90;;;;;;4982269;28;20118;-62
2022/10/10 05:16:24;;;;;;;8.45;5.70;;;11.90;99.90;;;;;;4964913;28;20117;-62
2022/10/10 05:18:50;;;;;;;11.60;6.53;;;11.40;99.90;;;;;;4986802;28;20038;-63
2022/10/10 05:21:16;;;;;;;10.48;6.47;;;11.60;99.90;;;;;;4984624;28;20051;-63
2022/10/10 05:23:41;;;;;;;10.18;6.32;;;11.50;99.90;;;;;;4967790;28;20070;-62
2022/10/10 05:26:07;;;;;;;10.70;6.22;;;11.20;99.90;;;;;;4981764;28;20046;-62
2022/10/10 05:28:35;;;;;;;10.07;5.95;;;11.90;99.90;;;;;;4977760;28;20043;-63
2022/10/10 05:31:02;;;;;;;7.22;5.88;;;11.30;99.90;;;;;;4966330;28;20057;-62
2022/10/10 05:33:27;;;;;;;8.05;5.50;;;11.10;99.90;;;;;;4983088;28;20046;-62
2022/10/10 05:36:04;;;;;;;10.45;5.97;;;11.00;99.90;;;;;;4962861;28;20471;-62
2022/10/10 05:38:30;;;;;;;15.40;6.13;;;11.10;99.90;;;;;;4989731;28;20101;-62
2022/10/10 05:40:56;;;;;;;16.73;6.95;;;11.50;99.90;;;;;;4982941;28;20034;-63
2022/10/10 05:43:21;;;;;;;13.80;6.85;;;11.60;99.90;;;;;;4978334;28;20109;-63
2022/10/10 05:45:47;;;;;;;9.95;6.13;;;11.70;99.90;;;;;;4985622;28;20531;-62
2022/10/10 05:48:12;;;;;;;12.93;7.18;;;11.30;99.90;;;;;;4985669;28;20042;-62
2022/10/10 05:50:40;;;;;;;12.27;6.80;;;11.30;99.90;;;;;;4986915;28;20062;-62
2022/10/10 05:53:06;;;;;;;13.52;7.88;;;11.40;99.90;;;;;;4968316;28;20055;-62
2022/10/10 05:55:32;;;;;;;12.07;6.80;;;12.00;99.90;;;;;;4974433;28;20442;-62
2022/10/10 05:57:58;;;;;;;15.90;7.57;;;11.60;99.90;;;;;;4982125;28;20034;-63
2022/10/10 06:00:24;;;;;;;11.20;6.88;;;12.00;99.90;;;;;;4983575;28;20037;-62
2022/10/10 06:02:49;;;;;;;13.02;7.28;;;12.70;99.90;;;;;;4978817;28;20042;-63
2022/10/10 06:05:15;;;;;;;12.93;6.80;;;12.20;99.90;;;;;;4963883;28;20101;-62
2022/10/10 06:07:40;;;;;;;13.45;6.85;;;12.00;99.90;;;;;;4983465;28;20142;-62
2022/10/10 06:10:07;;;;;;;10.70;6.65;;;12.90;99.90;;;;;;4980698;28;20038;-63
2022/10/10 06:12:33;;;;;;;15.75;7.38;;;12.10;99.90;;;;;;4993310;28;20066;-63
2022/10/10 06:14:58;;;;;;;12.35;7.05;;;12.40;99.90;;;;;;4981527;28;20046;-61
2022/10/10 06:17:24;;;;;;;10.45;6.70;;;12.40;99.90;;;;;;4993108;28;20492;-62
2022/10/10 06:19:50;;;;;;;15.02;6.88;;;12.30;99.90;;;;;;4982457;28;20030;-62
2022/10/10 06:22:15;;;;;;;15.55;7.57;;;13.40;99.90;;;;;;4968866;28;20125;-67
2022/10/10 06:24:41;;;;;;;12.45;7.47;;;13.20;99.90;;;;;;4981483;28;20424;-60
2022/10/10 06:27:07;;;;;;;14.55;7.65;;;12.90;99.90;;;;;;4987593;28;20053;-64
2022/10/10 06:29:32;;;;;;;16.85;7.82;;;12.80;99.90;;;;;;4988414;28;20038;-62
2022/10/10 06:31:58;;;;;;;13.68;7.22;;;12.80;99.90;;;;;;4979563;28;20038;-62
2022/10/10 06:34:24;;;;;;;14.63;7.50;;;13.40;99.90;;;;;;4986600;28;20537;-62
2022/10/10 06:36:50;;;;;;;13.90;7.75;;;13.40;99.90;;;;;;4983222;28;20058;-62
2022/10/10 06:39:16;;;;;;;11.10;7.68;;;12.90;99.90;;;;;;4984092;28;20345;-62
2022/10/10 06:41:42;;;;;;;17.85;8.07;;;12.90;99.90;;;;;;4967802;28;20128;-62
2022/10/10 06:44:08;;;;;;;16.70;7.47;;;13.70;99.90;;;;;;4985148;28;20035;-62
2022/10/10 06:46:36;;;;;;;11.68;7.57;;;13.20;99.90;;;;;;4966592;28;20531;-62
2022/10/10 06:49:03;;;;;;;14.88;7.70;;;13.80;99.90;;;;;;4990164;28;20129;-62
2022/10/10 06:51:29;;;;;;;12.95;7.93;;;13.80;99.90;;;;;;4982283;28;20042;-63
2022/10/10 06:53:57;;;;;;;14.48;7.10;;;13.60;99.90;;;;;;4986787;28;20050;-65
2022/10/10 06:56:22;;;;;;;18.38;8.68;;;13.40;99.90;;;;;;4966687;28;20046;-61
2022/10/10 06:58:49;;;;;;;14.70;8.77;;;14.20;99.90;;;;;;4982670;28;20443;-62
2022/10/10 07:01:17;;;;;;;13.27;8.23;;;14.00;99.90;;;;;;4984254;28;20428;-63
2022/10/10 07:03:43;;;;;;;14.68;8.15;;;13.80;99.90;;;;;;4987490;28;20048;-63
2022/10/10 07:06:10;;;;;;;14.20;8.60;;;14.30;99.90;;;;;;4980826;28;20414;-62
2022/10/10 07:08:36;;;;;;;9.25;7.70;;;13.90;99.90;;;;;;4982529;28;20126;-63
2022/10/10 07:11:02;;;;;;;13.60;7.88;;;14.00;99.90;;;;;;4964115;28;20408;-63
2022/10/10 07:13:28;;;;;;;10.27;7.10;;;14.50;99.90;;;;;;4989341;28;20109;-62
2022/10/10 07:15:53;;;;;;;14.52;7.93;;;14.50;99.90;;;;;;4984384;28;20547;-63
2022/10/10 07:18:20;;;;;;;13.60;8.05;;;15.10;99.90;;;;;;4977609;28;20045;-63
2022/10/10 07:20:45;;;;;;;13.13;8.07;;;14.90;99.90;;;;;;4984479;28;20109;-62
2022/10/10 07:23:11;;;;;;;13.43;7.38;;;15.20;99.90;;;;;;4969845;28;20138;-63
2022/10/10 07:25:38;;;;;;;14.95;8.48;;;15.20;99.90;;;;;;4983536;28;20057;-61
2022/10/10 07:28:05;;;;;;;11.65;8.45;;;15.20;99.90;;;;;;4987055;28;20071;-62
2022/10/10 07:30:31;;;;;;;13.68;8.70;;;15.10;99.90;;;;;;4984535;28;20038;-63
2022/10/10 07:32:56;;;;;;;13.18;8.65;;;15.70;99.90;;;;;;4958933;28;20097;-63
2022/10/10 07:35:22;;;;;;;12.68;8.00;;;15.70;99.90;;;;;;4972942;28;20492;-63
2022/10/10 07:37:51;;;;;;;11.25;7.75;;;15.20;99.90;;;;;;4955609;28;20446;-63
2022/10/10 07:40:17;;;;;;;16.23;7.70;;;15.60;99.90;;;;;;4954589;28;20046;-63
2022/10/10 07:42:43;;;;;;;12.63;8.10;;;15.40;99.90;;;;;;4968854;28;20048;-63
2022/10/10 07:45:10;;;;;;;11.45;8.55;;;15.60;99.90;;;;;;4992354;28;20491;-63
2022/10/10 07:47:37;;;;;;;16.88;8.90;;;15.20;99.90;;;;;;4992071;28;20104;-63
2022/10/10 07:50:05;;;;;;;12.85;7.95;;;15.80;99.90;;;;;;4992311;28;20039;-63
2022/10/10 07:52:30;;;;;;;10.95;7.53;;;15.40;99.90;;;;;;4991650;28;20455;-63
2022/10/10 07:54:56;;;;;;;13.40;9.52;;;15.80;99.90;;;;;;4975013;28;20084;-63
2022/10/10 07:57:22;;;;;;;11.57;7.90;;;15.70;99.90;;;;;;4992099;28;20067;-63
2022/10/10 07:59:47;;;;;;;14.52;7.88;;;15.20;99.90;;;;;;4974527;28;20049;-64
2022/10/10 08:02:13;;;;;;;20.00;8.70;;;15.50;99.90;;;;;;4991702;28;20454;-64
2022/10/10 08:04:39;;;;;;;13.57;8.85;;;15.30;99.90;;;;;;4971026;28;20092;-64
2022/10/10 08:07:05;;;;;;;12.77;8.23;;;15.80;99.90;;;;;;4972944;28;20507;-64
2022/10/10 08:09:31;;;;;;;13.48;7.57;;;15.30;99.90;;;;;;4972689;28;20094;-64
2022/10/10 08:11:56;;;;;;;14.15;8.15;;;15.80;99.90;;;;;;4984821;28;20109;-64
2022/10/10 08:14:22;;;;;;;14.20;8.95;;;15.60;99.90;;;;;;4972497;28;20043;-64
2022/10/10 08:16:48;;;;;;;12.88;8.65;;;15.50;99.90;;;;;;4968880;28;20189;-64
2022/10/10 08:19:13;;;;;;;14.15;7.95;;;15.40;99.90;;;;;;4991302;28;20039;-64
2022/10/10 08:21:39;;;;;;;17.83;9.52;;;15.40;99.90;;;;;;4991393;28;20392;-64
2022/10/10 08:24:05;;;;;;;14.52;8.65;;;15.50;99.90;;;;;;4991861;28;20042;-64
2022/10/10 08:26:30;;;;;;;14.82;8.85;;;16.00;99.90;;;;;;4991710;28;20034;-64
2022/10/10 08:28:56;;;;;;;17.92;8.80;;;16.10;99.90;;;;;;4991169;28;20547;-64
2022/10/10 08:31:22;;;;;;;19.13;9.13;;;16.20;99.90;;;;;;4990810;28;20108;-64
2022/10/10 08:33:49;;;;;;;15.63;8.90;;;16.40;99.90;;;;;;4991543;28;20072;-64
2022/10/10 08:36:19;;;;;;;14.65;9.02;;;16.40;99.90;;;;;;4989995;28;20476;-64
2022/10/10 08:38:46;;;;;;;17.35;8.82;;;16.80;99.90;;;;;;4989362;28;20423;-64
2022/10/10 08:41:35;;;;;;;14.70;8.88;;;16.90;99.90;;;;;;4991388;28;20109;-65
2022/10/10 08:44:16;;;;;;;18.92;8.85;;;17.10;99.90;;;;;;4991663;28;20473;-64
2022/10/10 08:46:49;;;;;;;17.00;8.50;;;17.10;99.90;;;;;;4990579;28;20062;-64
2022/10/10 08:49:29;;;;;;;11.95;7.65;;;16.80;99.90;;;;;;4991567;28;20480;-64
2022/10/10 08:52:07;;;;;;;14.75;8.07;;;16.80;99.90;;;;;;4991454;28;20042;-64
2022/10/10 08:54:35;;;;;;;19.25;8.00;;;17.00;99.90;;;;;;4995878;28;20126;-64
2022/10/10 08:57:04;;;;;;;17.92;8.32;;;16.90;99.90;;;;;;4995336;28;20042;-64
2022/10/10 08:59:34;;;;;;;14.68;8.98;;;17.00;99.90;;;;;;4995513;28;20042;-64
2022/10/10 09:02:28;;;;;;;19.02;9.10;;;16.70;99.90;;;;;;4977221;28;20476;-64
2022/10/10 09:04:56;;;;;;;12.35;8.68;;;16.80;99.90;;;;;;4955725;28;20454;-64
2022/10/10 09:07:50;;;;;;;14.88;8.05;;;17.40;99.90;;;;;;4991070;28;20498;-65
2022/10/10 09:10:48;;;;;;;14.98;7.90;;;17.40;99.90;;;;;;4995240;28;20046;-65
2022/10/10 09:13:41;;;;;;;14.52;8.25;;;17.10;99.90;;;;;;4955008;28;20054;-64
2022/10/10 09:16:35;;;;;;;22.00;8.35;;;17.30;99.90;;;;;;4981305;28;20051;-64
2022/10/10 09:19:09;;;;;;;12.40;8.10;;;17.50;99.90;;;;;;4994888;28;20045;-64
2022/10/10 09:21:38;;;;;;;11.80;7.53;;;17.60;99.90;;;;;;4995358;28;20046;-65
2022/10/10 09:24:08;;;;;;;15.77;7.43;;;18.00;99.90;;;;;;4995370;28;20532;-65
2022/10/10 09:26:46;;;;;;;16.38;7.75;;;17.50;99.90;;;;;;4964675;28;20046;-64
2022/10/10 09:29:11;;;;;;;20.52;7.78;;;17.80;99.90;;;;;;4980167;28;20412;-65
2022/10/10 09:31:48;;;;;;;11.27;7.28;;;17.60;99.90;;;;;;4991553;28;20045;-65
2022/10/10 09:34:30;;;;;;;13.35;8.55;;;17.60;99.90;;;;;;4994983;28;20533;-64
2022/10/10 09:36:59;;;;;;;15.50;7.18;;;17.60;99.90;;;;;;4994979;28;20042;-64
2022/10/10 09:39:53;;;;;;;12.98;7.28;;;18.00;99.90;;;;;;4977244;28;20046;-64
2022/10/10 09:42:30;;;;;;;14.15;8.57;;;17.90;99.90;;;;;;4976147;28;20080;-65
2022/10/10 09:44:56;;;;;;;17.10;7.90;;;17.60;99.90;;;;;;4971890;28;20031;-65
2022/10/10 09:47:22;;;;;;;20.25;8.73;;;17.60;99.90;;;;;;4981286;28;20455;-65
2022/10/10 09:49:48;;;;;;;14.15;8.60;;;17.60;99.90;;;;;;4979678;28;20122;-65
2022/10/10 09:52:33;;;;;;;15.10;8.63;;;17.80;99.90;;;;;;4975125;28;20078;-64
2022/10/10 09:55:27;;;;;;;22.30;8.95;;;18.00;99.90;;;;;;4957205;28;20065;-65
2022/10/10 09:57:56;;;;;;;24.15;9.07;;;18.10;99.90;;;;;;4977049;28;20046;-64
2022/10/10 10:00:33;;;;;;;15.77;9.00;;;18.00;99.90;;;;;;4994233;28;20416;-64
2022/10/10 10:03:14;;;;;;;15.18;8.35;;;17.90;99.90;;;;;;4993403;28;20100;-64
2022/10/10 10:05:43;;;;;;;16.70;8.50;;;18.00;99.90;;;;;;4986281;28;20039;-65
2022/10/10 10:08:23;;;;;;;17.85;8.38;;;18.40;99.90;;;;;;4974881;28;20098;-64
2022/10/10 10:10:49;;;;;;;17.45;8.55;;;18.30;99.90;;;;;;4974602;28;20047;-64
2022/10/10 10:13:23;;;;;;;19.58;8.55;;;18.40;99.90;;;;;;4974556;28;20130;-65
2022/10/10 10:15:54;;;;;;;19.27;8.00;;;18.40;99.90;;;;;;4972718;28;20477;-65
2022/10/10 10:18:27;;;;;;;23.20;8.82;;;18.20;99.90;;;;;;4974746;28;20039;-65
2022/10/10 10:21:22;;;;;;;16.80;7.97;;;18.10;99.90;;;;;;4974606;28;20042;-65
2022/10/10 10:23:59;;;;;;;20.15;7.85;;;18.00;99.90;;;;;;4957100;28;20104;-65
2022/10/10 10:26:40;;;;;;;18.13;8.30;;;18.40;99.90;;;;;;4986973;28;20042;-65
2022/10/10 10:29:32;;;;;;;16.65;7.90;;;18.40;99.90;;;;;;4993548;28;20134;-65
2022/10/10 10:32:36;;;;;;;26.23;9.63;;;18.40;99.90;;;;;;4993242;28;20046;-65
2022/10/10 10:35:19;;;;;;;19.08;8.52;;;18.30;99.90;;;;;;4993461;28;20125;-65
2022/10/10 10:38:10;;;;;;;20.60;9.95;;;17.90;99.90;;;;;;4993640;28;20049;-64
2022/10/10 10:40:58;;;;;;;18.25;8.23;;;17.80;99.90;;;;;;4974244;28;20164;-65
2022/10/10 10:43:33;;;;;;;18.05;7.90;;;18.20;99.90;;;;;;4959956;28;20045;-64
2022/10/10 10:46:26;;;;;;;14.90;8.20;;;17.80;99.90;;;;;;4975663;28;20457;-64
2022/10/10 10:49:01;;;;;;;19.77;9.10;;;17.70;99.90;;;;;;4988910;28;20137;-65
2022/10/10 10:51:51;;;;;;;20.45;9.27;;;18.20;99.90;;;;;;4982613;28;20042;-65
2022/10/10 10:54:17;;;;;;;24.83;8.57;;;17.60;99.90;;;;;;4993122;28;20058;-64
2022/10/10 10:57:15;;;;;;;17.17;8.35;;;17.70;99.90;;;;;;4993376;28;20524;-64
2022/10/10 10:59:59;;;;;;;16.75;9.18;;;17.70;99.90;;;;;;4993471;28;20057;-64
2022/10/10 11:02:39;;;;;;;15.27;7.95;;;17.90;99.90;;;;;;4992748;28;20034;-65
2022/10/10 11:05:31;;;;;;;16.50;7.72;;;17.90;99.90;;;;;;4991806;28;20034;-65
2022/10/10 11:08:19;;;;;;;15.45;7.00;;;18.60;99.90;;;;;;4973780;28;20050;-65
2022/10/10 11:11:09;;;;;;;29.67;6.95;;;18.30;99.90;;;;;;4956400;28;20041;-65
2022/10/10 11:13:53;;;;;;;14.90;5.95;;;18.70;99.90;;;;;;4987633;28;20038;-65
2022/10/10 11:16:31;;;;;;;16.88;6.03;;;18.90;99.90;;;;;;4956088;28;20093;-65
2022/10/10 11:19:02;;;;;;;15.55;5.93;;;18.80;99.90;;;;;;4973578;28;20042;-65
2022/10/10 11:21:30;;;;;;;21.33;5.47;;;18.60;99.90;;;;;;4973693;28;20042;-65
2022/10/10 11:24:08;;;;;;;14.77;5.07;;;18.30;99.90;;;;;;4956242;28;20047;-65
2022/10/10 11:26:47;;;;;;;16.85;5.43;;;18.30;99.90;;;;;;4961332;28;20545;-65
2022/10/10 11:29:19;;;;;;;15.32;4.03;;;18.90;99.90;;;;;;4992623;28;20510;-65
2022/10/10 11:32:01;;;;;;;12.05;3.80;;;18.50;99.90;;;;;;4992692;28;20554;-64
2022/10/10 11:34:33;;;;;;;11.45;3.25;;;18.70;99.90;;;;;;4992784;28;20046;-65
2022/10/10 11:37:04;;;;;;;13.45;3.25;;;18.70;99.90;;;;;;4975138;28;20042;-64
2022/10/10 11:39:38;;;;;;;9.25;2.55;;;18.60;99.90;;;;;;4992731;28;20046;-65
2022/10/10 11:42:28;;;;;;;13.18;3.15;;;18.10;99.90;;;;;;4992673;28;20121;-65
2022/10/10 11:45:20;;;;;;;8.48;2.47;;;18.10;99.90;;;;;;4992239;28;20090;-65
2022/10/10 11:48:00;;;;;;;12.55;2.80;;;18.00;99.90;;;;;;4992418;28;20043;-65
2022/10/10 11:50:35;;;;;;;7.07;2.70;;;18.60;99.90;;;;;;4991845;28;20057;-65
2022/10/10 11:53:21;;;;;;;7.47;2.22;;;18.00;99.90;;;;;;4984632;28;20492;-65
2022/10/10 11:56:20;;;;;;;9.02;2.72;;;18.20;99.90;;;;;;4991809;28;20065;-65
2022/10/10 11:58:55;;;;;;;8.02;2.60;;;18.40;99.90;;;;;;4991495;28;20046;-65
2022/10/10 12:01:38;;;;;;;9.40;2.22;;;18.60;99.90;;;;;;4980914;28;20037;-65
2022/10/10 12:04:03;;;;;;;11.68;2.25;;;18.50;99.90;;;;;;4981042;28;20414;-65
2022/10/10 12:06:38;;;;;;;12.35;2.42;;;18.50;99.90;;;;;;4976261;28;20134;-65
2022/10/10 12:09:15;;;;;;;7.03;1.63;;;18.60;99.90;;;;;;4976476;28;20047;-65
2022/10/10 12:11:54;;;;;;;10.13;1.92;;;18.10;99.90;;;;;;4971475;28;20125;-65
2022/10/10 12:14:23;;;;;;;9.48;2.20;;;17.90;99.90;;;;;;4955464;28;20070;-65
2022/10/10 12:16:50;;;;;;;9.93;1.90;;;17.50;99.90;;;;;;4954834;28;20085;-65
2022/10/10 12:19:24;;;;;;;10.23;1.75;;;17.30;99.90;;;;;;4972444;28;20046;-64
2022/10/10 12:22:04;;;;;;;16.92;2.85;;;17.00;99.90;;;;;;4972553;28;20042;-64
2022/10/10 12:25:07;;;;;;;8.18;1.92;;;16.60;99.90;;;;;;4972710;28;20043;-64
2022/10/10 12:28:21;;;;;;;16.52;2.58;;;16.30;99.90;;;;;;4954597;28;20201;-64
2022/10/10 12:30:56;;;;;;;17.58;2.80;;;16.40;99.90;;;;;;4949568;28;20129;-64
2022/10/10 12:33:25;;;;;;;18.25;3.13;;;16.50;99.90;;;;;;4980437;28;20040;-64
2022/10/10 12:35:51;;;;;;;9.00;2.05;;;16.80;99.90;;;;;;4988316;28;20594;-64
2022/10/10 12:38:28;;;;;;;10.57;2.10;;;15.90;99.90;;;;;;4974267;28;20117;-64
2022/10/10 12:40:56;;;;;;;16.17;2.40;;;15.70;99.90;;;;;;4974358;28;20053;-65
2022/10/10 12:43:39;;;;;;;10.45;2.22;;;16.00;99.90;;;;;;4970595;28;20038;-65
2022/10/10 12:46:25;;;;;;;15.98;2.70;;;16.20;99.90;;;;;;4987147;28;20034;-65
2022/10/10 12:49:15;;;;;;;20.27;3.22;;;15.60;99.90;;;;;;4974664;28;20563;-64
2022/10/10 12:51:41;;;;;;;13.07;2.10;;;15.60;99.90;;;;;;4991627;28;20492;-64
2022/10/10 12:54:17;;;;;;;12.57;2.38;;;16.70;99.90;;;;;;4991622;28;20121;-65
2022/10/10 12:56:45;;;;;;;19.92;3.15;;;15.70;99.90;;;;;;4973856;28;20051;-64
2022/10/10 12:59:24;;;;;;;16.55;2.97;;;15.90;99.90;;;;;;4961563;28;20539;-64
2022/10/10 13:01:55;;;;;;;11.82;2.17;;;15.80;99.90;;;;;;4954891;28;20571;-64